sensor_id;sensor_type;location;lat;lon;timestamp;P1;durP1;ratioP1;P2;durP2;ratioP2
39486;SDS011;25173;50.430;18.926;2024-03-08T00:00:30;43.60;;;27.45;;
39486;SDS011;25173;50.430;18.926;2024-03-08T00:03:33;46.25;;;28.50;;
39486;SDS011;25173;50.430;18.926;2024-03-08T00:06:33;42.92;;;27.55;;
39486;SDS011;25173;50.430;18.926;2024-03-08T00:09:34;45.42;;;27.90;;
39486;SDS011;25173;50.430;18.926;2024-03-08T00:12:35;46.17;;;27.95;;
39486;SDS011;25173;50.430;18.926;2024-03-08T00:15:35;45.20;;;28.88;;
39486;SDS011;25173;50.430;18.926;2024-03-08T00:18:36;42.67;;;28.00;;
39486;SDS011;25173;50.430;18.926;2024-03-08T00:21:37;47.15;;;27.67;;
39486;SDS011;25173;50.430;18.926;2024-03-08T00:24:37;42.33;;;27.30;;
39486;SDS011;25173;50.430;18.926;2024-03-08T00:27:38;53.38;;;29.65;;
39486;SDS011;25173;50.430;18.926;2024-03-08T00:30:38;44.75;;;28.35;;
39486;SDS011;25173;50.430;18.926;2024-03-08T00:33:40;40.50;;;26.30;;
39486;SDS011;25173;50.430;18.926;2024-03-08T00:36:41;46.30;;;27.88;;
39486;SDS011;25173;50.430;18.926;2024-03-08T00:39:42;41.50;;;27.60;;
39486;SDS011;25173;50.430;18.926;2024-03-08T00:42:42;45.92;;;27.60;;
39486;SDS011;25173;50.430;18.926;2024-03-08T00:45:43;47.65;;;29.48;;
39486;SDS011;25173;50.430;18.926;2024-03-08T00:48:44;46.47;;;29.38;;
39486;SDS011;25173;50.430;18.926;2024-03-08T00:51:44;47.80;;;29.02;;
39486;SDS011;25173;50.430;18.926;2024-03-08T00:54:45;51.60;;;31.85;;
39486;SDS011;25173;50.430;18.926;2024-03-08T00:57:45;55.67;;;31.92;;
39486;SDS011;25173;50.430;18.926;2024-03-08T01:00:46;51.83;;;32.30;;
39486;SDS011;25173;50.430;18.926;2024-03-08T01:03:47;47.95;;;30.42;;
39486;SDS011;25173;50.430;18.926;2024-03-08T01:06:48;52.10;;;32.50;;
39486;SDS011;25173;50.430;18.926;2024-03-08T01:09:49;47.13;;;30.90;;
39486;SDS011;25173;50.430;18.926;2024-03-08T01:12:49;50.38;;;30.50;;
39486;SDS011;25173;50.430;18.926;2024-03-08T01:15:50;53.22;;;30.38;;
39486;SDS011;25173;50.430;18.926;2024-03-08T01:18:55;53.20;;;31.30;;
39486;SDS011;25173;50.430;18.926;2024-03-08T01:21:55;51.33;;;30.15;;
39486;SDS011;25173;50.430;18.926;2024-03-08T01:24:57;50.53;;;31.52;;
39486;SDS011;25173;50.430;18.926;2024-03-08T01:27:58;44.72;;;28.08;;
39486;SDS011;25173;50.430;18.926;2024-03-08T01:30:58;50.72;;;30.20;;
39486;SDS011;25173;50.430;18.926;2024-03-08T01:33:59;47.55;;;29.23;;
39486;SDS011;25173;50.430;18.926;2024-03-08T01:36:59;49.85;;;29.95;;
39486;SDS011;25173;50.430;18.926;2024-03-08T01:40:01;45.78;;;28.75;;
39486;SDS011;25173;50.430;18.926;2024-03-08T01:43:19;45.85;;;28.92;;
39486;SDS011;25173;50.430;18.926;2024-03-08T01:46:20;45.00;;;28.17;;
39486;SDS011;25173;50.430;18.926;2024-03-08T01:49:22;46.88;;;28.20;;
39486;SDS011;25173;50.430;18.926;2024-03-08T01:52:26;45.95;;;27.48;;
39486;SDS011;25173;50.430;18.926;2024-03-08T01:55:28;39.65;;;26.58;;
39486;SDS011;25173;50.430;18.926;2024-03-08T01:58:29;43.25;;;27.17;;
39486;SDS011;25173;50.430;18.926;2024-03-08T02:01:30;44.35;;;27.73;;
39486;SDS011;25173;50.430;18.926;2024-03-08T02:04:31;47.65;;;27.40;;
39486;SDS011;25173;50.430;18.926;2024-03-08T02:07:31;44.38;;;26.52;;
39486;SDS011;25173;50.430;18.926;2024-03-08T02:10:35;42.47;;;26.63;;
39486;SDS011;25173;50.430;18.926;2024-03-08T02:13:36;43.17;;;26.83;;
39486;SDS011;25173;50.430;18.926;2024-03-08T02:16:36;43.92;;;26.25;;
39486;SDS011;25173;50.430;18.926;2024-03-08T02:19:38;42.83;;;26.55;;
39486;SDS011;25173;50.430;18.926;2024-03-08T02:22:38;43.63;;;28.00;;
39486;SDS011;25173;50.430;18.926;2024-03-08T02:25:39;38.28;;;24.38;;
39486;SDS011;25173;50.430;18.926;2024-03-08T02:28:40;38.50;;;25.27;;
39486;SDS011;25173;50.430;18.926;2024-03-08T02:31:43;37.65;;;24.23;;
39486;SDS011;25173;50.430;18.926;2024-03-08T02:34:43;35.60;;;25.27;;
39486;SDS011;25173;50.430;18.926;2024-03-08T02:37:44;42.30;;;24.10;;
39486;SDS011;25173;50.430;18.926;2024-03-08T02:40:48;36.95;;;23.88;;
39486;SDS011;25173;50.430;18.926;2024-03-08T02:43:50;40.97;;;24.70;;
39486;SDS011;25173;50.430;18.926;2024-03-08T02:46:51;36.20;;;24.13;;
39486;SDS011;25173;50.430;18.926;2024-03-08T02:49:51;41.10;;;24.65;;
39486;SDS011;25173;50.430;18.926;2024-03-08T02:52:52;41.25;;;24.60;;
39486;SDS011;25173;50.430;18.926;2024-03-08T02:55:52;34.58;;;23.67;;
39486;SDS011;25173;50.430;18.926;2024-03-08T02:58:53;36.90;;;24.48;;
39486;SDS011;25173;50.430;18.926;2024-03-08T03:01:54;38.25;;;24.33;;
39486;SDS011;25173;50.430;18.926;2024-03-08T03:04:54;37.38;;;25.05;;
39486;SDS011;25173;50.430;18.926;2024-03-08T03:07:56;40.03;;;25.20;;
39486;SDS011;25173;50.430;18.926;2024-03-08T03:10:58;39.53;;;25.02;;
39486;SDS011;25173;50.430;18.926;2024-03-08T03:13:58;36.47;;;24.65;;
39486;SDS011;25173;50.430;18.926;2024-03-08T03:16:59;38.78;;;25.00;;
39486;SDS011;25173;50.430;18.926;2024-03-08T03:19:59;39.22;;;24.73;;
39486;SDS011;25173;50.430;18.926;2024-03-08T03:23:06;37.22;;;24.83;;
39486;SDS011;25173;50.430;18.926;2024-03-08T03:26:08;38.95;;;25.70;;
39486;SDS011;25173;50.430;18.926;2024-03-08T03:29:12;38.25;;;25.67;;
39486;SDS011;25173;50.430;18.926;2024-03-08T03:32:13;40.42;;;24.55;;
39486;SDS011;25173;50.430;18.926;2024-03-08T03:35:14;38.17;;;24.73;;
39486;SDS011;25173;50.430;18.926;2024-03-08T03:38:17;37.17;;;23.42;;
39486;SDS011;25173;50.430;18.926;2024-03-08T03:41:20;37.05;;;24.05;;
39486;SDS011;25173;50.430;18.926;2024-03-08T03:44:20;37.85;;;23.70;;
39486;SDS011;25173;50.430;18.926;2024-03-08T03:47:21;36.72;;;23.50;;
39486;SDS011;25173;50.430;18.926;2024-03-08T03:50:21;35.20;;;22.65;;
39486;SDS011;25173;50.430;18.926;2024-03-08T03:53:23;35.95;;;22.83;;
39486;SDS011;25173;50.430;18.926;2024-03-08T03:56:26;34.30;;;23.40;;
39486;SDS011;25173;50.430;18.926;2024-03-08T03:59:27;38.35;;;23.98;;
39486;SDS011;25173;50.430;18.926;2024-03-08T04:02:27;34.85;;;22.60;;
39486;SDS011;25173;50.430;18.926;2024-03-08T04:05:28;37.03;;;22.23;;
39486;SDS011;25173;50.430;18.926;2024-03-08T04:08:28;34.80;;;22.40;;
39486;SDS011;25173;50.430;18.926;2024-03-08T04:11:29;34.05;;;22.05;;
39486;SDS011;25173;50.430;18.926;2024-03-08T04:14:30;34.10;;;24.20;;
39486;SDS011;25173;50.430;18.926;2024-03-08T04:17:31;34.83;;;24.17;;
39486;SDS011;25173;50.430;18.926;2024-03-08T04:20:31;34.58;;;22.95;;
39486;SDS011;25173;50.430;18.926;2024-03-08T04:23:32;37.70;;;24.45;;
39486;SDS011;25173;50.430;18.926;2024-03-08T04:26:35;36.22;;;24.77;;
39486;SDS011;25173;50.430;18.926;2024-03-08T04:29:36;39.60;;;26.88;;
39486;SDS011;25173;50.430;18.926;2024-03-08T04:32:37;36.92;;;25.48;;
39486;SDS011;25173;50.430;18.926;2024-03-08T04:35:38;37.83;;;25.73;;
39486;SDS011;25173;50.430;18.926;2024-03-08T04:38:42;40.38;;;24.35;;
39486;SDS011;25173;50.430;18.926;2024-03-08T04:41:43;38.90;;;25.95;;
39486;SDS011;25173;50.430;18.926;2024-03-08T04:44:46;35.38;;;22.95;;
39486;SDS011;25173;50.430;18.926;2024-03-08T04:47:47;36.42;;;23.83;;
39486;SDS011;25173;50.430;18.926;2024-03-08T04:50:48;35.45;;;24.17;;
39486;SDS011;25173;50.430;18.926;2024-03-08T04:53:49;36.38;;;23.58;;
39486;SDS011;25173;50.430;18.926;2024-03-08T04:56:50;34.53;;;24.13;;
39486;SDS011;25173;50.430;18.926;2024-03-08T04:59:50;35.15;;;24.17;;
39486;SDS011;25173;50.430;18.926;2024-03-08T05:02:51;39.30;;;26.30;;
39486;SDS011;25173;50.430;18.926;2024-03-08T05:05:53;39.85;;;24.55;;
39486;SDS011;25173;50.430;18.926;2024-03-08T05:08:53;39.60;;;24.63;;
39486;SDS011;25173;50.430;18.926;2024-03-08T05:11:54;37.78;;;24.90;;
39486;SDS011;25173;50.430;18.926;2024-03-08T05:14:54;37.25;;;23.88;;
39486;SDS011;25173;50.430;18.926;2024-03-08T05:17:55;37.30;;;24.50;;
39486;SDS011;25173;50.430;18.926;2024-03-08T05:20:58;40.90;;;24.55;;
39486;SDS011;25173;50.430;18.926;2024-03-08T05:23:58;38.70;;;25.02;;
39486;SDS011;25173;50.430;18.926;2024-03-08T05:26:59;40.25;;;24.63;;
39486;SDS011;25173;50.430;18.926;2024-03-08T05:30:03;36.45;;;24.17;;
39486;SDS011;25173;50.430;18.926;2024-03-08T05:33:04;36.88;;;24.52;;
39486;SDS011;25173;50.430;18.926;2024-03-08T05:36:05;36.53;;;23.23;;
39486;SDS011;25173;50.430;18.926;2024-03-08T05:39:06;34.88;;;23.90;;
39486;SDS011;25173;50.430;18.926;2024-03-08T05:42:07;40.65;;;22.83;;
39486;SDS011;25173;50.430;18.926;2024-03-08T05:45:09;35.55;;;24.17;;
39486;SDS011;25173;50.430;18.926;2024-03-08T05:48:13;34.47;;;24.15;;
39486;SDS011;25173;50.430;18.926;2024-03-08T05:51:13;36.90;;;22.30;;
39486;SDS011;25173;50.430;18.926;2024-03-08T05:54:14;36.05;;;22.85;;
39486;SDS011;25173;50.430;18.926;2024-03-08T05:57:15;34.83;;;22.92;;
39486;SDS011;25173;50.430;18.926;2024-03-08T06:00:16;35.83;;;22.20;;
39486;SDS011;25173;50.430;18.926;2024-03-08T06:03:17;33.95;;;21.65;;
39486;SDS011;25173;50.430;18.926;2024-03-08T06:06:20;35.30;;;23.77;;
39486;SDS011;25173;50.430;18.926;2024-03-08T06:09:22;35.72;;;22.35;;
39486;SDS011;25173;50.430;18.926;2024-03-08T06:12:23;29.55;;;22.63;;
39486;SDS011;25173;50.430;18.926;2024-03-08T06:15:29;33.05;;;23.48;;
39486;SDS011;25173;50.430;18.926;2024-03-08T06:18:32;42.15;;;26.20;;
39486;SDS011;25173;50.430;18.926;2024-03-08T06:21:32;38.22;;;25.33;;
39486;SDS011;25173;50.430;18.926;2024-03-08T06:24:33;32.05;;;21.98;;
39486;SDS011;25173;50.430;18.926;2024-03-08T06:27:36;34.40;;;22.80;;
39486;SDS011;25173;50.430;18.926;2024-03-08T06:30:37;35.00;;;22.83;;
39486;SDS011;25173;50.430;18.926;2024-03-08T06:33:37;30.92;;;22.15;;
39486;SDS011;25173;50.430;18.926;2024-03-08T06:36:38;33.63;;;22.48;;
39486;SDS011;25173;50.430;18.926;2024-03-08T06:39:39;33.90;;;22.98;;
39486;SDS011;25173;50.430;18.926;2024-03-08T06:42:40;32.25;;;23.23;;
39486;SDS011;25173;50.430;18.926;2024-03-08T06:45:42;26.90;;;22.10;;
39486;SDS011;25173;50.430;18.926;2024-03-08T06:48:48;31.60;;;21.88;;
39486;SDS011;25173;50.430;18.926;2024-03-08T06:51:49;28.55;;;22.30;;
39486;SDS011;25173;50.430;18.926;2024-03-08T06:54:49;30.15;;;21.05;;
39486;SDS011;25173;50.430;18.926;2024-03-08T06:57:52;27.85;;;21.52;;
39486;SDS011;25173;50.430;18.926;2024-03-08T07:00:53;27.88;;;20.00;;
39486;SDS011;25173;50.430;18.926;2024-03-08T07:03:54;28.15;;;18.98;;
39486;SDS011;25173;50.430;18.926;2024-03-08T07:06:57;27.40;;;19.63;;
39486;SDS011;25173;50.430;18.926;2024-03-08T07:09:57;27.40;;;20.70;;
39486;SDS011;25173;50.430;18.926;2024-03-08T07:12:58;24.73;;;18.63;;
39486;SDS011;25173;50.430;18.926;2024-03-08T07:15:58;29.52;;;21.05;;
39486;SDS011;25173;50.430;18.926;2024-03-08T07:19:01;33.83;;;20.60;;
39486;SDS011;25173;50.430;18.926;2024-03-08T07:22:03;23.95;;;18.50;;
39486;SDS011;25173;50.430;18.926;2024-03-08T07:25:05;32.63;;;21.70;;
39486;SDS011;25173;50.430;18.926;2024-03-08T07:28:21;30.10;;;21.52;;
39486;SDS011;25173;50.430;18.926;2024-03-08T07:31:22;31.25;;;22.33;;
39486;SDS011;25173;50.430;18.926;2024-03-08T07:34:38;31.00;;;22.50;;
39486;SDS011;25173;50.430;18.926;2024-03-08T07:37:39;28.58;;;23.08;;
39486;SDS011;25173;50.430;18.926;2024-03-08T07:40:40;30.42;;;23.75;;
39486;SDS011;25173;50.430;18.926;2024-03-08T07:43:44;33.75;;;23.13;;
39486;SDS011;25173;50.430;18.926;2024-03-08T07:46:45;31.83;;;23.17;;
39486;SDS011;25173;50.430;18.926;2024-03-08T07:49:45;33.17;;;22.20;;
39486;SDS011;25173;50.430;18.926;2024-03-08T07:52:46;45.95;;;38.50;;
39486;SDS011;25173;50.430;18.926;2024-03-08T07:55:47;40.17;;;32.65;;
39486;SDS011;25173;50.430;18.926;2024-03-08T07:58:47;28.25;;;22.25;;
39486;SDS011;25173;50.430;18.926;2024-03-08T08:01:48;35.15;;;28.17;;
39486;SDS011;25173;50.430;18.926;2024-03-08T08:04:49;33.03;;;23.17;;
39486;SDS011;25173;50.430;18.926;2024-03-08T08:07:49;29.65;;;23.25;;
39486;SDS011;25173;50.430;18.926;2024-03-08T08:10:52;29.75;;;22.17;;
39486;SDS011;25173;50.430;18.926;2024-03-08T08:13:53;26.88;;;20.38;;
39486;SDS011;25173;50.430;18.926;2024-03-08T08:16:56;31.60;;;24.60;;
39486;SDS011;25173;50.430;18.926;2024-03-08T08:19:57;34.13;;;22.75;;
39486;SDS011;25173;50.430;18.926;2024-03-08T08:22:58;28.88;;;22.33;;
39486;SDS011;25173;50.430;18.926;2024-03-08T08:25:59;35.60;;;25.77;;
39486;SDS011;25173;50.430;18.926;2024-03-08T08:28:59;50.88;;;32.13;;
39486;SDS011;25173;50.430;18.926;2024-03-08T08:32:00;39.45;;;23.75;;
39486;SDS011;25173;50.430;18.926;2024-03-08T08:35:01;38.20;;;23.70;;
39486;SDS011;25173;50.430;18.926;2024-03-08T08:38:03;33.70;;;24.55;;
39486;SDS011;25173;50.430;18.926;2024-03-08T08:41:04;29.85;;;23.33;;
39486;SDS011;25173;50.430;18.926;2024-03-08T08:44:16;32.22;;;24.20;;
39486;SDS011;25173;50.430;18.926;2024-03-08T08:47:17;34.25;;;23.63;;
39486;SDS011;25173;50.430;18.926;2024-03-08T08:50:19;34.97;;;24.13;;
39486;SDS011;25173;50.430;18.926;2024-03-08T08:53:25;35.47;;;22.75;;
39486;SDS011;25173;50.430;18.926;2024-03-08T08:56:26;31.52;;;22.60;;
39486;SDS011;25173;50.430;18.926;2024-03-08T08:59:28;34.15;;;24.17;;
39486;SDS011;25173;50.430;18.926;2024-03-08T09:02:29;35.65;;;25.23;;
39486;SDS011;25173;50.430;18.926;2024-03-08T09:05:29;34.90;;;24.23;;
39486;SDS011;25173;50.430;18.926;2024-03-08T09:08:30;37.40;;;24.88;;
39486;SDS011;25173;50.430;18.926;2024-03-08T09:11:31;34.83;;;24.05;;
39486;SDS011;25173;50.430;18.926;2024-03-08T09:14:31;37.20;;;23.38;;
39486;SDS011;25173;50.430;18.926;2024-03-08T09:17:32;34.65;;;23.55;;
39486;SDS011;25173;50.430;18.926;2024-03-08T09:20:33;36.47;;;24.80;;
39486;SDS011;25173;50.430;18.926;2024-03-08T09:23:34;40.30;;;25.90;;
39486;SDS011;25173;50.430;18.926;2024-03-08T09:26:34;30.98;;;21.17;;
39486;SDS011;25173;50.430;18.926;2024-03-08T09:29:35;27.75;;;20.17;;
39486;SDS011;25173;50.430;18.926;2024-03-08T09:32:36;28.25;;;20.13;;
39486;SDS011;25173;50.430;18.926;2024-03-08T09:35:37;45.33;;;29.40;;
39486;SDS011;25173;50.430;18.926;2024-03-08T09:38:37;26.30;;;18.70;;
39486;SDS011;25173;50.430;18.926;2024-03-08T09:41:39;27.15;;;17.95;;
39486;SDS011;25173;50.430;18.926;2024-03-08T09:44:43;28.13;;;18.38;;
39486;SDS011;25173;50.430;18.926;2024-03-08T09:47:45;29.00;;;18.60;;
39486;SDS011;25173;50.430;18.926;2024-03-08T09:50:46;28.58;;;20.33;;
39486;SDS011;25173;50.430;18.926;2024-03-08T09:53:46;27.52;;;18.95;;
39486;SDS011;25173;50.430;18.926;2024-03-08T09:56:48;28.25;;;18.30;;
39486;SDS011;25173;50.430;18.926;2024-03-08T09:59:51;30.95;;;20.40;;
39486;SDS011;25173;50.430;18.926;2024-03-08T10:02:52;26.17;;;17.52;;
39486;SDS011;25173;50.430;18.926;2024-03-08T10:05:54;29.10;;;20.08;;
39486;SDS011;25173;50.430;18.926;2024-03-08T10:08:56;28.27;;;19.10;;
39486;SDS011;25173;50.430;18.926;2024-03-08T10:11:57;34.67;;;22.27;;
39486;SDS011;25173;50.430;18.926;2024-03-08T10:14:58;30.20;;;19.42;;
39486;SDS011;25173;50.430;18.926;2024-03-08T10:17:59;25.52;;;17.52;;
39486;SDS011;25173;50.430;18.926;2024-03-08T10:21:03;29.60;;;19.25;;
39486;SDS011;25173;50.430;18.926;2024-03-08T10:24:09;28.17;;;18.85;;
39486;SDS011;25173;50.430;18.926;2024-03-08T10:27:10;25.67;;;17.38;;
39486;SDS011;25173;50.430;18.926;2024-03-08T10:30:15;25.33;;;17.48;;
39486;SDS011;25173;50.430;18.926;2024-03-08T10:33:20;25.08;;;16.50;;
39486;SDS011;25173;50.430;18.926;2024-03-08T10:36:20;28.77;;;18.38;;
39486;SDS011;25173;50.430;18.926;2024-03-08T10:39:24;28.00;;;18.05;;
39486;SDS011;25173;50.430;18.926;2024-03-08T10:42:27;23.58;;;17.83;;
39486;SDS011;25173;50.430;18.926;2024-03-08T10:45:36;29.70;;;17.90;;
39486;SDS011;25173;50.430;18.926;2024-03-08T10:48:40;39.60;;;21.67;;
39486;SDS011;25173;50.430;18.926;2024-03-08T10:51:44;25.98;;;18.92;;
39486;SDS011;25173;50.430;18.926;2024-03-08T10:54:47;24.85;;;17.27;;
39486;SDS011;25173;50.430;18.926;2024-03-08T10:57:49;32.38;;;19.20;;
39486;SDS011;25173;50.430;18.926;2024-03-08T11:00:49;25.77;;;17.52;;
39486;SDS011;25173;50.430;18.926;2024-03-08T11:03:50;21.98;;;16.08;;
39486;SDS011;25173;50.430;18.926;2024-03-08T11:07:02;25.50;;;17.27;;
39486;SDS011;25173;50.430;18.926;2024-03-08T11:10:20;29.15;;;18.83;;
39486;SDS011;25173;50.430;18.926;2024-03-08T11:16:41;22.58;;;16.67;;
39486;SDS011;25173;50.430;18.926;2024-03-08T11:19:46;26.00;;;16.90;;
39486;SDS011;25173;50.430;18.926;2024-03-08T11:22:49;63.15;;;38.22;;
39486;SDS011;25173;50.430;18.926;2024-03-08T11:25:54;27.52;;;20.58;;
39486;SDS011;25173;50.430;18.926;2024-03-08T11:28:54;34.42;;;22.67;;
39486;SDS011;25173;50.430;18.926;2024-03-08T11:35:19;33.47;;;20.17;;
39486;SDS011;25173;50.430;18.926;2024-03-08T11:38:21;27.02;;;19.00;;
39486;SDS011;25173;50.430;18.926;2024-03-08T11:41:23;27.90;;;18.25;;
39486;SDS011;25173;50.430;18.926;2024-03-08T11:44:26;33.00;;;24.95;;
39486;SDS011;25173;50.430;18.926;2024-03-08T11:47:27;28.80;;;18.83;;
39486;SDS011;25173;50.430;18.926;2024-03-08T11:50:29;25.45;;;17.13;;
39486;SDS011;25173;50.430;18.926;2024-03-08T11:53:29;26.73;;;17.30;;
39486;SDS011;25173;50.430;18.926;2024-03-08T11:56:30;35.13;;;19.88;;
39486;SDS011;25173;50.430;18.926;2024-03-08T11:59:32;27.55;;;16.95;;
39486;SDS011;25173;50.430;18.926;2024-03-08T12:02:33;24.17;;;15.57;;
39486;SDS011;25173;50.430;18.926;2024-03-08T12:08:39;21.02;;;14.82;;
39486;SDS011;25173;50.430;18.926;2024-03-08T12:11:39;19.83;;;13.35;;
39486;SDS011;25173;50.430;18.926;2024-03-08T12:14:42;23.30;;;14.43;;
39486;SDS011;25173;50.430;18.926;2024-03-08T12:17:44;20.75;;;16.05;;
39486;SDS011;25173;50.430;18.926;2024-03-08T12:20:50;24.48;;;15.77;;
39486;SDS011;25173;50.430;18.926;2024-03-08T12:24:13;21.35;;;14.80;;
39486;SDS011;25173;50.430;18.926;2024-03-08T12:27:19;18.83;;;14.15;;
39486;SDS011;25173;50.430;18.926;2024-03-08T12:33:27;26.52;;;17.20;;
39486;SDS011;25173;50.430;18.926;2024-03-08T12:36:27;21.10;;;14.75;;
39486;SDS011;25173;50.430;18.926;2024-03-08T12:39:29;19.13;;;13.98;;
39486;SDS011;25173;50.430;18.926;2024-03-08T12:42:30;23.58;;;13.73;;
39486;SDS011;25173;50.430;18.926;2024-03-08T12:45:32;27.27;;;20.90;;
39486;SDS011;25173;50.430;18.926;2024-03-08T12:48:36;18.92;;;13.48;;
39486;SDS011;25173;50.430;18.926;2024-03-08T12:51:40;19.30;;;12.60;;
39486;SDS011;25173;50.430;18.926;2024-03-08T12:54:41;20.20;;;14.75;;
39486;SDS011;25173;50.430;18.926;2024-03-08T12:57:42;23.67;;;13.80;;
39486;SDS011;25173;50.430;18.926;2024-03-08T13:01:09;20.50;;;14.52;;
39486;SDS011;25173;50.430;18.926;2024-03-08T13:04:09;16.73;;;11.35;;
39486;SDS011;25173;50.430;18.926;2024-03-08T13:07:11;15.70;;;11.77;;
39486;SDS011;25173;50.430;18.926;2024-03-08T13:10:15;17.17;;;11.57;;
39486;SDS011;25173;50.430;18.926;2024-03-08T13:13:16;18.85;;;11.73;;
39486;SDS011;25173;50.430;18.926;2024-03-08T13:16:17;16.40;;;11.02;;
39486;SDS011;25173;50.430;18.926;2024-03-08T13:19:19;18.20;;;11.13;;
39486;SDS011;25173;50.430;18.926;2024-03-08T13:22:22;15.80;;;11.73;;
39486;SDS011;25173;50.430;18.926;2024-03-08T13:25:23;15.55;;;10.73;;
39486;SDS011;25173;50.430;18.926;2024-03-08T13:28:24;17.52;;;10.65;;
39486;SDS011;25173;50.430;18.926;2024-03-08T13:31:29;17.35;;;11.55;;
39486;SDS011;25173;50.430;18.926;2024-03-08T13:34:30;18.63;;;12.05;;
39486;SDS011;25173;50.430;18.926;2024-03-08T13:37:35;18.80;;;10.80;;
39486;SDS011;25173;50.430;18.926;2024-03-08T13:40:36;14.60;;;10.32;;
39486;SDS011;25173;50.430;18.926;2024-03-08T13:43:36;17.95;;;10.98;;
39486;SDS011;25173;50.430;18.926;2024-03-08T13:46:37;14.85;;;9.95;;
39486;SDS011;25173;50.430;18.926;2024-03-08T13:49:38;15.38;;;9.77;;
39486;SDS011;25173;50.430;18.926;2024-03-08T13:52:39;13.77;;;10.20;;
39486;SDS011;25173;50.430;18.926;2024-03-08T13:55:40;19.55;;;13.25;;
39486;SDS011;25173;50.430;18.926;2024-03-08T13:58:41;18.02;;;13.48;;
39486;SDS011;25173;50.430;18.926;2024-03-08T14:01:41;16.55;;;10.95;;
39486;SDS011;25173;50.430;18.926;2024-03-08T14:04:43;14.77;;;10.27;;
39486;SDS011;25173;50.430;18.926;2024-03-08T14:07:44;15.50;;;10.48;;
39486;SDS011;25173;50.430;18.926;2024-03-08T14:10:47;15.25;;;11.05;;
39486;SDS011;25173;50.430;18.926;2024-03-08T14:13:49;14.82;;;10.48;;
39486;SDS011;25173;50.430;18.926;2024-03-08T14:16:50;15.68;;;11.13;;
39486;SDS011;25173;50.430;18.926;2024-03-08T14:19:54;17.15;;;11.80;;
39486;SDS011;25173;50.430;18.926;2024-03-08T14:22:55;16.17;;;11.75;;
39486;SDS011;25173;50.430;18.926;2024-03-08T14:25:55;16.45;;;10.93;;
39486;SDS011;25173;50.430;18.926;2024-03-08T14:28:56;15.70;;;11.10;;
39486;SDS011;25173;50.430;18.926;2024-03-08T14:31:57;14.40;;;10.73;;
39486;SDS011;25173;50.430;18.926;2024-03-08T14:34:59;14.20;;;10.45;;
39486;SDS011;25173;50.430;18.926;2024-03-08T14:37:59;21.65;;;16.35;;
39486;SDS011;25173;50.430;18.926;2024-03-08T14:41:00;75.45;;;45.38;;
39486;SDS011;25173;50.430;18.926;2024-03-08T14:44:01;16.55;;;10.80;;
39486;SDS011;25173;50.430;18.926;2024-03-08T14:47:02;19.25;;;13.32;;
39486;SDS011;25173;50.430;18.926;2024-03-08T14:50:05;17.65;;;12.65;;
39486;SDS011;25173;50.430;18.926;2024-03-08T14:53:07;16.95;;;11.77;;
39486;SDS011;25173;50.430;18.926;2024-03-08T14:56:08;22.52;;;13.80;;
39486;SDS011;25173;50.430;18.926;2024-03-08T14:59:09;91.38;;;56.08;;
39486;SDS011;25173;50.430;18.926;2024-03-08T15:02:10;20.08;;;12.95;;
39486;SDS011;25173;50.430;18.926;2024-03-08T15:05:10;17.17;;;11.77;;
39486;SDS011;25173;50.430;18.926;2024-03-08T15:08:11;28.38;;;18.88;;
39486;SDS011;25173;50.430;18.926;2024-03-08T15:11:19;19.73;;;12.65;;
39486;SDS011;25173;50.430;18.926;2024-03-08T15:14:25;17.70;;;13.18;;
39486;SDS011;25173;50.430;18.926;2024-03-08T15:17:27;13.93;;;10.80;;
39486;SDS011;25173;50.430;18.926;2024-03-08T15:20:27;21.58;;;13.75;;
39486;SDS011;25173;50.430;18.926;2024-03-08T15:23:29;18.45;;;12.60;;
39486;SDS011;25173;50.430;18.926;2024-03-08T15:26:30;18.10;;;12.73;;
39486;SDS011;25173;50.430;18.926;2024-03-08T15:29:32;21.25;;;12.60;;
39486;SDS011;25173;50.430;18.926;2024-03-08T15:32:35;18.73;;;13.15;;
39486;SDS011;25173;50.430;18.926;2024-03-08T15:35:37;19.25;;;13.60;;
39486;SDS011;25173;50.430;18.926;2024-03-08T15:38:38;17.55;;;12.00;;
39486;SDS011;25173;50.430;18.926;2024-03-08T15:41:38;35.28;;;11.77;;
39486;SDS011;25173;50.430;18.926;2024-03-08T15:44:40;21.52;;;13.23;;
39486;SDS011;25173;50.430;18.926;2024-03-08T15:47:43;19.88;;;14.20;;
39486;SDS011;25173;50.430;18.926;2024-03-08T15:50:44;24.08;;;13.95;;
39486;SDS011;25173;50.430;18.926;2024-03-08T15:53:44;24.23;;;14.23;;
39486;SDS011;25173;50.430;18.926;2024-03-08T15:56:53;18.13;;;12.60;;
39486;SDS011;25173;50.430;18.926;2024-03-08T15:59:53;20.90;;;12.45;;
39486;SDS011;25173;50.430;18.926;2024-03-08T16:02:59;25.90;;;14.63;;
39486;SDS011;25173;50.430;18.926;2024-03-08T16:06:02;18.38;;;13.25;;
39486;SDS011;25173;50.430;18.926;2024-03-08T16:09:04;21.90;;;13.45;;
39486;SDS011;25173;50.430;18.926;2024-03-08T16:12:13;26.60;;;15.82;;
39486;SDS011;25173;50.430;18.926;2024-03-08T16:15:13;24.63;;;15.82;;
39486;SDS011;25173;50.430;18.926;2024-03-08T16:18:14;23.77;;;14.80;;
39486;SDS011;25173;50.430;18.926;2024-03-08T16:21:15;23.00;;;15.15;;
39486;SDS011;25173;50.430;18.926;2024-03-08T16:24:17;22.73;;;15.23;;
39486;SDS011;25173;50.430;18.926;2024-03-08T16:27:19;21.58;;;14.40;;
39486;SDS011;25173;50.430;18.926;2024-03-08T16:30:20;22.95;;;13.60;;
39486;SDS011;25173;50.430;18.926;2024-03-08T16:33:22;19.13;;;14.05;;
39486;SDS011;25173;50.430;18.926;2024-03-08T16:36:23;27.27;;;14.63;;
39486;SDS011;25173;50.430;18.926;2024-03-08T16:39:24;23.60;;;14.32;;
39486;SDS011;25173;50.430;18.926;2024-03-08T16:42:24;23.63;;;14.70;;
39486;SDS011;25173;50.430;18.926;2024-03-08T16:45:25;21.85;;;15.32;;
39486;SDS011;25173;50.430;18.926;2024-03-08T16:48:26;23.52;;;16.02;;
39486;SDS011;25173;50.430;18.926;2024-03-08T16:51:30;30.73;;;16.52;;
39486;SDS011;25173;50.430;18.926;2024-03-08T16:54:32;29.10;;;17.23;;
39486;SDS011;25173;50.430;18.926;2024-03-08T16:57:34;29.10;;;18.08;;
39486;SDS011;25173;50.430;18.926;2024-03-08T17:00:36;25.40;;;15.55;;
39486;SDS011;25173;50.430;18.926;2024-03-08T17:03:36;25.05;;;16.42;;
39486;SDS011;25173;50.430;18.926;2024-03-08T17:06:37;23.65;;;16.95;;
39486;SDS011;25173;50.430;18.926;2024-03-08T17:09:41;23.73;;;17.27;;
39486;SDS011;25173;50.430;18.926;2024-03-08T17:12:42;25.58;;;17.50;;
39486;SDS011;25173;50.430;18.926;2024-03-08T17:15:48;26.80;;;17.67;;
39486;SDS011;25173;50.430;18.926;2024-03-08T17:18:48;27.92;;;18.63;;
39486;SDS011;25173;50.430;18.926;2024-03-08T17:21:49;26.75;;;17.10;;
39486;SDS011;25173;50.430;18.926;2024-03-08T17:24:49;28.17;;;17.02;;
39486;SDS011;25173;50.430;18.926;2024-03-08T17:27:51;32.10;;;20.75;;
39486;SDS011;25173;50.430;18.926;2024-03-08T17:30:54;33.95;;;20.30;;
39486;SDS011;25173;50.430;18.926;2024-03-08T17:33:55;28.98;;;18.75;;
39486;SDS011;25173;50.430;18.926;2024-03-08T17:36:55;29.83;;;19.30;;
39486;SDS011;25173;50.430;18.926;2024-03-08T17:39:59;33.47;;;22.70;;